createdAt,value
2019-04-27T00:01:56.823Z,10.90
2019-04-27T00:04:36.016Z,10.80
2019-04-27T00:07:24.111Z,10.80
2019-04-27T00:09:57.458Z,10.80
2019-04-27T00:12:27.096Z,10.80
2019-04-27T00:14:56.079Z,10.80
2019-04-27T00:17:45.851Z,10.80
2019-04-27T00:20:14.016Z,10.70
2019-04-27T00:22:50.208Z,10.60
2019-04-27T00:25:18.795Z,10.60
2019-04-27T00:27:47.367Z,10.50
2019-04-27T00:30:17.210Z,10.50
2019-04-27T00:32:45.761Z,10.40
2019-04-27T00:35:15.995Z,10.40
2019-04-27T00:37:48.961Z,10.40
2019-04-27T00:40:23.471Z,10.30
2019-04-27T00:42:54.030Z,10.30
2019-04-27T00:45:23.446Z,10.30
2019-04-27T00:47:59.044Z,10.30
2019-04-27T00:50:23.506Z,10.20
2019-04-27T00:52:53.204Z,10.20
2019-04-27T00:55:23.438Z,10.10
2019-04-27T00:58:06.008Z,10.10
2019-04-27T01:00:45.238Z,10.00
2019-04-27T01:03:24.610Z,10.00
2019-04-27T01:05:53.270Z,10.00
2019-04-27T01:08:22.954Z,10.00
2019-04-27T01:10:51.595Z,10.00
2019-04-27T01:13:20.163Z,10.00
2019-04-27T01:15:48.756Z,10.00
2019-04-27T01:18:17.314Z,9.90
2019-04-27T01:20:45.898Z,9.90
2019-04-27T01:23:14.457Z,9.90
2019-04-27T01:26:00.899Z,9.90
2019-04-27T01:28:31.102Z,9.90
2019-04-27T01:31:10.062Z,9.90
2019-04-27T01:33:38.988Z,9.90
2019-04-27T01:36:08.925Z,9.80
2019-04-27T01:38:39.248Z,9.80
2019-04-27T01:41:08.954Z,9.80
2019-04-27T01:43:38.770Z,9.70
2019-04-27T01:46:09.115Z,9.70
2019-04-27T01:48:38.722Z,9.70
2019-04-27T01:51:09.108Z,9.70
2019-04-27T01:53:39.022Z,9.60
2019-04-27T01:56:09.227Z,9.60
2019-04-27T01:58:39.271Z,9.50
2019-04-27T02:01:14.957Z,9.50
2019-04-27T02:04:01.680Z,9.40
2019-04-27T02:06:30.401Z,9.40
2019-04-27T02:08:59.540Z,9.50
2019-04-27T02:11:28.779Z,9.40
2019-04-27T02:13:59.408Z,9.40
2019-04-27T02:16:30.955Z,9.40
2019-04-27T02:18:59.558Z,9.40
2019-04-27T02:21:29.461Z,9.40
2019-04-27T02:23:59.829Z,9.40
2019-04-27T02:26:29.915Z,9.40
2019-04-27T02:29:00.303Z,9.40
2019-04-27T02:31:36.491Z,9.40
2019-04-27T02:34:22.007Z,9.40
2019-04-27T02:36:50.603Z,9.40
2019-04-27T02:39:21.335Z,9.30
2019-04-27T02:41:51.794Z,9.30
2019-04-27T02:44:23.160Z,9.30
2019-04-27T02:46:51.703Z,9.40
2019-04-27T02:49:20.286Z,9.40
2019-04-27T02:51:53.398Z,9.40
2019-04-27T02:54:22.036Z,9.30
2019-04-27T02:56:52.682Z,9.30
2019-04-27T02:59:20.834Z,9.30
2019-04-27T03:02:10.740Z,9.30
2019-04-27T03:04:40.112Z,9.20
2019-04-27T03:07:11.212Z,9.20
2019-04-27T03:09:39.700Z,9.20
2019-04-27T03:12:10.180Z,9.20
2019-04-27T03:14:42.900Z,9.20
2019-04-27T03:17:22.249Z,9.20
2019-04-27T03:19:52.373Z,9.20
2019-04-27T03:22:22.930Z,9.20
2019-04-27T03:25:14.902Z,9.20
2019-04-27T03:27:52.200Z,9.20
2019-04-27T03:30:22.963Z,9.10
2019-04-27T03:32:55.986Z,9.10
2019-04-27T03:35:23.074Z,9.00
2019-04-27T03:37:51.739Z,8.90
2019-04-27T03:40:20.615Z,8.90
2019-04-27T03:42:51.002Z,8.80
2019-04-27T03:45:20.133Z,8.80
2019-04-27T03:47:50.393Z,8.80
2019-04-27T03:50:21.007Z,8.80
2019-04-27T03:52:51.311Z,8.80
2019-04-27T03:55:42.500Z,8.80
2019-04-27T03:58:21.621Z,8.70
2019-04-27T04:00:52.236Z,8.70
2019-04-27T04:03:21.110Z,8.60
2019-04-27T04:05:51.976Z,8.50
2019-04-27T04:08:20.149Z,8.50
2019-04-27T04:10:52.873Z,8.50
2019-04-27T04:13:25.878Z,8.60
2019-04-27T04:15:56.085Z,8.60
2019-04-27T04:18:25.748Z,8.50
2019-04-27T04:20:54.295Z,8.50
2019-04-27T04:23:22.879Z,8.50
2019-04-27T04:25:51.457Z,8.50
2019-04-27T04:28:20.281Z,8.40
2019-04-27T04:30:50.106Z,8.40
2019-04-27T04:33:20.585Z,8.40
2019-04-27T04:35:49.857Z,8.40
2019-04-27T04:38:20.775Z,8.40
2019-04-27T04:40:53.746Z,8.40
2019-04-27T04:43:26.480Z,8.50
2019-04-27T04:46:02.223Z,8.40
2019-04-27T04:48:30.881Z,8.40
2019-04-27T04:51:00.068Z,8.40
2019-04-27T04:53:29.397Z,8.40
2019-04-27T04:56:00.111Z,8.40
2019-04-27T04:58:29.439Z,8.40
2019-04-27T05:00:59.695Z,8.40
2019-04-27T05:03:28.688Z,8.50
2019-04-27T05:05:58.782Z,8.50
2019-04-27T05:08:29.136Z,8.50
2019-04-27T05:10:59.506Z,8.60
2019-04-27T05:13:29.353Z,8.60
2019-04-27T05:15:58.892Z,8.60
2019-04-27T05:18:29.148Z,8.60
2019-04-27T05:20:59.653Z,8.60
2019-04-27T05:23:28.746Z,8.70
2019-04-27T05:25:59.188Z,8.70
2019-04-27T05:28:27.618Z,8.70
2019-04-27T05:30:56.214Z,8.80
2019-04-27T05:33:24.802Z,8.90
2019-04-27T05:35:53.366Z,9.00
2019-04-27T05:38:21.946Z,9.00
2019-04-27T05:40:50.502Z,9.10
2019-04-27T05:43:20.794Z,9.20
2019-04-27T05:46:21.235Z,9.30
2019-04-27T05:48:49.820Z,9.40
2019-04-27T05:51:19.741Z,9.60
2019-04-27T05:53:49.522Z,9.70
2019-04-27T05:56:19.311Z,9.70
2019-04-27T05:58:49.101Z,9.80
2019-04-27T06:01:19.683Z,9.90
2019-04-27T06:03:49.826Z,10.00
2019-04-27T06:06:19.750Z,10.00
2019-04-27T06:08:49.501Z,10.10
2019-04-27T06:11:19.674Z,10.20
2019-04-27T06:13:49.256Z,10.30
2019-04-27T06:16:19.492Z,10.40
2019-04-27T06:18:49.351Z,10.50
2019-04-27T06:21:19.576Z,10.50
2019-04-27T06:23:48.760Z,10.60
2019-04-27T06:26:17.478Z,10.60
2019-04-27T06:28:46.079Z,10.70
2019-04-27T06:31:14.657Z,10.80
2019-04-27T06:33:43.255Z,10.90
2019-04-27T06:36:11.820Z,11.00
2019-04-27T06:38:40.420Z,11.10
2019-04-27T06:41:09.996Z,11.30
2019-04-27T06:43:40.427Z,11.50
2019-04-27T06:46:09.002Z,11.50
2019-04-27T06:48:39.359Z,11.60
2019-04-27T06:51:09.517Z,11.70
2019-04-27T06:53:39.441Z,11.90
2019-04-27T06:56:08.989Z,12.00
2019-04-27T06:58:40.499Z,12.20
2019-04-27T07:01:10.757Z,12.30
2019-04-27T07:03:39.573Z,12.30
2019-04-27T07:06:08.830Z,12.30
2019-04-27T07:08:39.900Z,12.30
2019-04-27T07:11:08.993Z,12.40
2019-04-27T07:13:39.042Z,12.40
2019-04-27T07:16:09.514Z,12.50
2019-04-27T07:18:39.549Z,12.60
2019-04-27T07:21:16.925Z,12.60
2019-04-27T07:23:40.128Z,12.70
2019-04-27T07:26:09.356Z,12.70
2019-04-27T07:28:39.262Z,12.80
2019-04-27T07:31:09.637Z,12.90
2019-04-27T07:33:39.591Z,12.90
2019-04-27T07:36:08.996Z,13.00
2019-04-27T07:38:39.389Z,13.00
2019-04-27T07:41:09.569Z,13.10
2019-04-27T07:43:51.984Z,13.10
2019-04-27T07:46:20.556Z,13.20
2019-04-27T07:48:49.237Z,13.20
2019-04-27T07:51:30.882Z,13.30
2019-04-27T07:53:49.650Z,13.40
2019-04-27T07:56:19.117Z,13.50
2019-04-27T07:58:49.379Z,13.50
2019-04-27T08:01:19.269Z,13.60
2019-04-27T08:03:49.083Z,13.70
2019-04-27T08:06:18.949Z,13.80
2019-04-27T08:08:49.161Z,13.80
2019-04-27T08:11:19.263Z,13.90
2019-04-27T08:13:49.019Z,14.00
2019-04-27T08:16:18.314Z,14.10
2019-04-27T08:18:49.624Z,14.20
2019-04-27T08:21:18.895Z,14.30
2019-04-27T08:23:48.987Z,14.30
2019-04-27T08:26:19.302Z,14.40
2019-04-27T08:28:49.506Z,14.50
2019-04-27T08:31:19.739Z,14.60
2019-04-27T08:33:48.721Z,14.70
2019-04-27T08:36:18.885Z,14.70
2019-04-27T08:38:48.936Z,14.90
2019-04-27T08:41:19.377Z,15.00
2019-04-27T08:43:48.837Z,15.10
2019-04-27T08:46:18.664Z,15.20
2019-04-27T08:48:48.888Z,15.30
2019-04-27T08:51:19.460Z,15.40
2019-04-27T08:53:47.843Z,15.50
2019-04-27T08:56:16.426Z,15.70
2019-04-27T08:58:44.990Z,15.70
2019-04-27T09:01:13.590Z,15.80
2019-04-27T09:03:42.162Z,15.70
2019-04-27T09:06:12.228Z,15.60
2019-04-27T09:08:42.433Z,15.70
2019-04-27T09:11:20.428Z,15.80
2019-04-27T09:13:50.487Z,16.00
2019-04-27T09:16:30.014Z,16.10
2019-04-27T09:19:00.215Z,16.40
2019-04-27T09:21:30.446Z,16.60
2019-04-27T09:23:59.355Z,16.70
2019-04-27T09:26:28.758Z,16.90
2019-04-27T09:28:57.461Z,17.00
2019-04-27T09:31:26.064Z,17.20
2019-04-27T09:33:54.639Z,17.30
2019-04-27T09:36:23.227Z,17.30
2019-04-27T09:38:51.791Z,17.20
2019-04-27T09:41:20.391Z,16.90
2019-04-27T09:43:48.954Z,16.70
2019-04-27T09:46:17.550Z,16.60
2019-04-27T09:48:46.594Z,16.50
2019-04-27T09:51:16.224Z,16.50
2019-04-27T09:53:45.815Z,16.50
2019-04-27T09:56:16.367Z,16.40
2019-04-27T09:58:44.679Z,16.40
2019-04-27T10:01:15.771Z,16.40
2019-04-27T10:03:43.487Z,16.40
2019-04-27T10:06:12.350Z,16.30
2019-04-27T10:08:40.914Z,16.20
2019-04-27T10:11:09.573Z,16.10
2019-04-27T10:13:38.136Z,15.90
2019-04-27T10:16:06.803Z,15.80
2019-04-27T10:18:36.742Z,15.70
2019-04-27T10:21:06.343Z,15.60
2019-04-27T10:23:36.222Z,15.50
2019-04-27T10:26:05.857Z,15.30
2019-04-27T10:28:35.454Z,15.20
2019-04-27T10:31:04.702Z,15.00
2019-04-27T10:33:33.278Z,14.90
2019-04-27T10:36:01.867Z,14.60
2019-04-27T10:38:30.473Z,14.40
2019-04-27T10:40:59.018Z,14.40
2019-04-27T10:43:27.601Z,14.30
2019-04-27T10:45:56.585Z,14.30
2019-04-27T10:48:26.532Z,14.30
2019-04-27T10:50:55.198Z,14.30
2019-04-27T10:53:23.766Z,14.20
2019-04-27T10:55:52.355Z,14.10
2019-04-27T10:58:20.918Z,14.00
2019-04-27T11:00:54.330Z,13.90
2019-04-27T11:03:41.045Z,13.90
2019-04-27T11:06:20.341Z,13.70
2019-04-27T11:08:48.976Z,13.60
2019-04-27T11:11:17.616Z,13.50
2019-04-27T11:13:46.404Z,13.40
2019-04-27T11:16:15.023Z,13.20
2019-04-27T11:18:43.590Z,13.20
2019-04-27T11:21:12.180Z,13.20
2019-04-27T11:23:40.746Z,13.20
2019-04-27T11:26:09.335Z,13.20
2019-04-27T11:28:37.910Z,13.20
2019-04-27T11:31:08.118Z,13.30
2019-04-27T11:33:36.703Z,13.40
2019-04-27T11:36:19.315Z,13.40
2019-04-27T11:38:49.595Z,13.50
2019-04-27T11:41:18.348Z,13.50
2019-04-27T11:43:46.918Z,13.60
2019-04-27T11:46:16.385Z,13.60
2019-04-27T11:48:46.555Z,13.70
2019-04-27T11:51:17.196Z,13.60
2019-04-27T11:53:46.798Z,13.50
2019-04-27T11:56:15.764Z,13.50
2019-04-27T11:58:47.148Z,13.50
2019-04-27T12:01:16.084Z,13.40
2019-04-27T12:03:44.818Z,13.50
2019-04-27T12:06:13.422Z,13.40
2019-04-27T12:08:42.010Z,13.40
2019-04-27T12:11:10.574Z,13.40
2019-04-27T12:13:39.170Z,13.50
2019-04-27T12:16:07.738Z,13.50
2019-04-27T12:18:36.317Z,13.50
2019-04-27T12:21:06.147Z,13.50
2019-04-27T12:23:37.112Z,13.50
2019-04-27T12:26:05.794Z,13.50
2019-04-27T12:28:42.374Z,13.50
2019-04-27T12:31:16.366Z,13.60
2019-04-27T12:33:46.008Z,13.70
2019-04-27T12:36:15.725Z,13.80
2019-04-27T12:38:44.447Z,13.90
2019-04-27T12:41:13.018Z,13.90
2019-04-27T12:43:41.607Z,14.00
2019-04-27T12:46:10.162Z,14.00
2019-04-27T12:48:38.892Z,14.00
2019-04-27T12:51:09.145Z,14.00
2019-04-27T12:53:49.881Z,13.90
2019-04-27T12:56:20.215Z,14.00
2019-04-27T12:58:56.650Z,14.00
2019-04-27T13:01:26.851Z,14.00
2019-04-27T13:03:58.565Z,14.00
2019-04-27T13:06:25.663Z,14.00
2019-04-27T13:08:55.778Z,13.90
2019-04-27T13:11:26.510Z,13.80
2019-04-27T13:13:57.260Z,13.70
2019-04-27T13:16:26.845Z,13.70
2019-04-27T13:18:55.681Z,13.70
2019-04-27T13:21:26.274Z,13.70
2019-04-27T13:24:03.611Z,13.70
2019-04-27T13:26:25.262Z,13.70
2019-04-27T13:28:53.942Z,13.70
2019-04-27T13:31:22.497Z,13.70
2019-04-27T13:33:51.108Z,13.80
2019-04-27T13:36:19.668Z,13.80
2019-04-27T13:38:49.135Z,13.80
2019-04-27T13:41:27.705Z,13.70
2019-04-27T13:43:47.886Z,13.60
2019-04-27T13:46:18.081Z,13.60
2019-04-27T13:49:04.410Z,13.60
2019-04-27T13:51:50.902Z,13.60
2019-04-27T13:54:26.127Z,13.60
2019-04-27T13:56:49.706Z,13.50
2019-04-27T13:59:18.733Z,13.50
2019-04-27T14:01:47.291Z,13.50
2019-04-27T14:04:15.878Z,13.40
2019-04-27T14:06:44.455Z,12.90
2019-04-27T14:09:13.045Z,12.30
2019-04-27T14:11:41.683Z,11.80
2019-04-27T14:14:10.274Z,11.50
2019-04-27T14:16:39.299Z,11.20
2019-04-27T14:19:08.901Z,10.90
2019-04-27T14:21:38.812Z,10.70
2019-04-27T14:24:07.683Z,10.50
2019-04-27T14:26:36.313Z,10.40
2019-04-27T14:29:04.900Z,10.30
2019-04-27T14:31:33.483Z,10.10
2019-04-27T14:34:02.051Z,10.10
2019-04-27T14:36:30.615Z,10.00
2019-04-27T14:38:59.202Z,10.00
2019-04-27T14:41:28.183Z,10.00
2019-04-27T14:44:07.491Z,10.00
2019-04-27T14:46:28.270Z,10.00
2019-04-27T14:48:57.377Z,10.00
2019-04-27T14:51:25.938Z,10.00
2019-04-27T14:53:54.553Z,10.00
2019-04-27T14:56:24.873Z,10.10
2019-04-27T14:58:53.418Z,10.10
2019-04-27T15:01:21.990Z,10.20
2019-04-27T15:03:50.582Z,10.20
2019-04-27T15:06:19.850Z,10.30
2019-04-27T15:08:49.209Z,10.40
2019-04-27T15:11:19.329Z,10.40
2019-04-27T15:13:50.377Z,10.50
2019-04-27T15:16:18.283Z,10.50
2019-04-27T15:18:49.969Z,10.50
2019-04-27T15:21:20.268Z,10.50
2019-04-27T15:23:49.042Z,10.50
2019-04-27T15:26:21.801Z,10.50
2019-04-27T15:28:51.120Z,10.60
2019-04-27T15:31:36.498Z,10.60
2019-04-27T15:34:27.638Z,10.70
2019-04-27T15:36:56.784Z,10.80
2019-04-27T15:39:30.498Z,10.80
2019-04-27T15:42:07.905Z,10.80
2019-04-27T15:44:32.106Z,10.80
2019-04-27T15:47:03.604Z,10.80
2019-04-27T15:49:30.912Z,10.70
2019-04-27T15:52:00.164Z,10.70
2019-04-27T15:54:32.026Z,10.70
2019-04-27T15:56:59.079Z,10.80
2019-04-27T15:59:37.014Z,10.90
2019-04-27T16:02:00.585Z,10.90
2019-04-27T16:04:29.178Z,11.00
2019-04-27T16:06:58.284Z,11.10
2019-04-27T16:09:28.384Z,11.20
2019-04-27T16:12:03.787Z,11.30
2019-04-27T16:14:28.818Z,11.40
2019-04-27T16:16:58.878Z,11.40
2019-04-27T16:19:28.698Z,11.40
2019-04-27T16:21:59.145Z,11.40
2019-04-27T16:24:28.982Z,11.40
2019-04-27T16:26:59.123Z,11.40
2019-04-27T16:29:31.408Z,11.30
2019-04-27T16:31:58.365Z,11.40
2019-04-27T16:34:28.569Z,11.40
2019-04-27T16:36:57.897Z,11.30
2019-04-27T16:39:28.593Z,11.30
2019-04-27T16:41:58.572Z,11.30
2019-04-27T16:44:26.910Z,11.30
2019-04-27T16:46:55.494Z,11.20
2019-04-27T16:49:24.053Z,11.10
2019-04-27T16:51:52.640Z,11.10
2019-04-27T16:54:21.538Z,11.10
2019-04-27T16:56:55.451Z,11.00
2019-04-27T17:01:50.642Z,10.90
2019-04-27T17:04:19.210Z,10.90
2019-04-27T17:06:49.505Z,11.00
2019-04-27T17:09:18.981Z,11.00
2019-04-27T17:11:50.400Z,10.90
2019-04-27T17:12:41.149Z,10.90
2019-04-27T17:14:21.928Z,10.80
2019-04-27T17:17:08.104Z,10.70
2019-04-27T17:19:39.987Z,10.70
2019-04-27T17:22:05.919Z,10.60
2019-04-27T17:24:42.649Z,10.60
2019-04-27T17:27:11.228Z,10.60
2019-04-27T17:29:41.382Z,10.60
2019-04-27T17:32:12.051Z,10.50
2019-04-27T17:34:40.615Z,10.50
2019-04-27T17:37:09.203Z,10.50
2019-04-27T17:39:38.710Z,10.50
2019-04-27T17:42:08.518Z,10.50
2019-04-27T17:44:39.169Z,10.50
2019-04-27T17:47:10.341Z,10.60
2019-04-27T17:49:38.191Z,10.50
2019-04-27T17:52:08.641Z,10.50
2019-04-27T17:54:40.848Z,10.60
2019-04-27T18:13:31.903Z,10.50
2019-04-27T18:16:00.467Z,10.40
2019-04-27T18:18:46.025Z,10.40
2019-04-27T18:21:15.162Z,10.40
2019-04-27T18:23:52.278Z,10.40
2019-04-27T18:26:27.774Z,10.30
2019-04-27T18:28:58.100Z,10.30
2019-04-27T18:31:26.681Z,10.30
2019-04-27T18:33:55.250Z,10.30
2019-04-27T18:36:23.849Z,10.30
2019-04-27T18:38:52.425Z,10.30
2019-04-27T18:41:20.994Z,10.30
2019-04-27T18:43:52.131Z,10.30
2019-04-27T18:46:24.469Z,10.30
2019-04-27T18:48:54.030Z,10.30
2019-04-27T18:51:38.311Z,10.30
2019-04-27T18:54:08.111Z,10.20
2019-04-27T18:56:38.446Z,10.20
2019-04-27T18:59:08.414Z,10.30
2019-04-27T19:01:37.358Z,10.30
2019-04-27T19:04:05.944Z,10.30
2019-04-27T19:06:34.530Z,10.30
2019-04-27T19:09:03.115Z,10.30
2019-04-27T19:11:31.679Z,10.20
2019-04-27T19:14:00.267Z,10.30
2019-04-27T19:16:29.334Z,10.30
2019-04-27T19:18:58.484Z,10.30
2019-04-27T19:21:28.801Z,10.30
2019-04-27T19:23:58.477Z,10.20
2019-04-27T19:26:28.968Z,10.20
2019-04-27T19:29:02.203Z,10.20
2019-04-27T19:31:32.415Z,10.20
2019-04-27T19:34:00.998Z,10.20
2019-04-27T19:36:30.412Z,10.10
2019-04-27T19:38:59.148Z,10.10
2019-04-27T19:41:28.907Z,10.10
2019-04-27T19:43:59.746Z,10.00
2019-04-27T19:46:28.574Z,10.00
2019-04-27T19:48:59.207Z,9.90
2019-04-27T19:51:28.217Z,10.00
2019-04-27T19:53:58.171Z,10.00
2019-04-27T19:56:28.321Z,9.90
2019-04-27T19:58:58.743Z,9.90
2019-04-27T20:01:28.867Z,9.90
2019-04-27T20:04:05.158Z,9.90
2019-04-27T20:06:33.795Z,9.90
2019-04-27T20:09:04.042Z,9.80
2019-04-27T20:11:32.618Z,9.80
2019-04-27T20:14:01.235Z,9.70
2019-04-27T20:16:31.731Z,9.70
2019-04-27T20:19:01.503Z,9.70
2019-04-27T20:21:30.910Z,9.70
2019-04-27T20:23:59.586Z,9.70
2019-04-27T20:26:28.143Z,9.70
2019-04-27T20:28:56.737Z,9.70
2019-04-27T20:31:25.620Z,9.60
2019-04-27T20:33:54.217Z,9.60
2019-04-27T20:36:22.775Z,9.60
2019-04-27T20:38:51.495Z,9.60
2019-04-27T20:41:21.732Z,9.60
2019-04-27T20:43:51.003Z,9.50
2019-04-27T20:46:22.506Z,9.50
2019-04-27T20:48:51.249Z,9.40
2019-04-27T20:51:21.596Z,9.40
2019-04-27T20:53:52.339Z,9.40
2019-04-27T20:56:20.944Z,9.30
2019-04-27T20:58:51.036Z,9.30
2019-04-27T21:01:19.681Z,9.30
2019-04-27T21:03:52.623Z,9.30
2019-04-27T21:06:22.817Z,9.20
2019-04-27T21:08:51.498Z,9.20
2019-04-27T21:11:20.907Z,9.20
2019-04-27T21:13:49.547Z,9.10
2019-04-27T21:16:18.125Z,9.10
2019-04-27T21:18:46.722Z,9.10
2019-04-27T21:21:15.283Z,9.10
2019-04-27T21:23:43.891Z,9.10
2019-04-27T21:26:12.457Z,9.10
2019-04-27T21:28:43.151Z,9.10
2019-04-27T21:31:12.815Z,9.10
2019-04-27T21:33:41.498Z,9.10
2019-04-27T21:36:11.714Z,9.10
2019-04-27T21:38:41.165Z,9.10
2019-04-27T21:41:10.671Z,9.10
2019-04-27T21:43:39.264Z,9.00
2019-04-27T21:46:07.827Z,8.90
2019-04-27T21:48:36.412Z,9.00
2019-04-27T21:51:05.052Z,8.90
2019-04-27T21:53:35.322Z,8.90
2019-04-27T21:56:05.551Z,8.90
2019-04-27T21:58:34.128Z,8.90
2019-04-27T22:01:12.874Z,8.90
2019-04-27T22:03:41.043Z,8.90
2019-04-27T22:06:11.531Z,8.90
2019-04-27T22:08:41.021Z,8.90
2019-04-27T22:11:11.700Z,8.90
2019-04-27T22:13:40.954Z,8.90
2019-04-27T22:16:12.716Z,8.90
2019-04-27T22:18:41.547Z,8.90
2019-04-27T22:21:11.470Z,8.90
2019-04-27T22:23:47.566Z,8.90
2019-04-27T22:26:16.156Z,8.90
2019-04-27T22:28:49.299Z,8.90
2019-04-27T22:31:14.965Z,8.90
2019-04-27T22:33:43.524Z,8.90
2019-04-27T22:36:12.111Z,8.90
2019-04-27T22:38:41.267Z,8.90
2019-04-27T22:41:21.355Z,8.90
2019-04-27T22:44:06.730Z,8.90
2019-04-27T22:46:42.798Z,8.80
2019-04-27T22:49:11.418Z,8.80
2019-04-27T22:51:42.739Z,8.80
2019-04-27T22:54:11.605Z,8.80
2019-04-27T22:56:42.230Z,8.80
2019-04-27T22:59:12.544Z,8.80
2019-04-27T23:01:54.704Z,8.80
2019-04-27T23:04:24.902Z,8.80
2019-04-27T23:06:53.558Z,8.70
2019-04-27T23:09:22.191Z,8.70
2019-04-27T23:11:51.624Z,8.70
2019-04-27T23:14:21.213Z,8.70
2019-04-27T23:16:51.462Z,8.60
2019-04-27T23:19:21.031Z,8.60
2019-04-27T23:21:53.014Z,8.60
2019-04-27T23:24:20.911Z,8.60
2019-04-27T23:26:49.691Z,8.60
2019-04-27T23:29:18.256Z,8.60
2019-04-27T23:32:03.599Z,8.50
2019-04-27T23:34:32.155Z,8.60
2019-04-27T23:37:00.748Z,8.50
2019-04-27T23:39:29.378Z,8.50
2019-04-27T23:41:57.958Z,8.50
2019-04-27T23:44:26.534Z,8.50
2019-04-27T23:46:55.118Z,8.50
2019-04-27T23:49:23.678Z,8.50
2019-04-27T23:51:56.721Z,8.60
2019-04-27T23:54:25.279Z,8.60
2019-04-27T23:56:53.865Z,8.60
2019-04-27T23:59:25.109Z,8.60
